Time;durP1;ratioP1;P1;durP2;ratioP2;P2;SDS_P1;SDS_P2;PMS_P1;PMS_P2;Temp;Humidity;BMP_temperature;BMP_pressure;BME280_temperature;BME280_humidity;BME280_pressure;Samples;Min_cycle;Max_cycle;Signal;HPM_P1;HPM_P2
2022/03/01 00:01:54;;;;;;;107.65;67.07;;;22.00;99.90;;;;;;4939618;28;20227;-74
2022/03/01 00:04:21;;;;;;;105.55;65.43;;;22.00;99.90;;;;;;4733344;29;20245;-74
2022/03/01 00:09:27;;;;;;;104.90;64.93;;;22.00;99.90;;;;;;5172463;27;20514;-74
2022/03/01 00:11:53;;;;;;;98.28;63.58;;;22.00;99.90;;;;;;5146154;27;20226;-74
2022/03/01 00:14:20;;;;;;;99.13;62.13;;;22.00;99.90;;;;;;5111619;28;20215;-74
2022/03/01 00:16:46;;;;;;;107.40;66.07;;;22.00;99.90;;;;;;5084346;28;20231;-74
2022/03/01 00:19:13;;;;;;;98.18;64.35;;;22.00;99.90;;;;;;5010411;28;20218;-74
2022/03/01 00:21:40;;;;;;;92.13;60.90;;;22.00;99.90;;;;;;4872724;29;20242;-73
2022/03/01 00:24:07;;;;;;;91.75;59.67;;;22.00;99.90;;;;;;4687562;30;20237;-72
2022/03/01 00:31:39;;;;;;;93.13;58.17;;;21.90;99.90;;;;;;5169821;27;20525;-74
2022/03/01 00:34:05;;;;;;;92.20;59.55;;;21.90;99.90;;;;;;5116013;27;20207;-74
2022/03/01 00:36:32;;;;;;;92.57;58.72;;;21.90;99.90;;;;;;5112393;27;20219;-74
2022/03/01 00:38:59;;;;;;;91.97;58.63;;;21.90;99.90;;;;;;5091618;28;20207;-74
2022/03/01 00:41:26;;;;;;;90.97;58.22;;;21.90;99.90;;;;;;5006620;28;20225;-74
2022/03/01 00:43:52;;;;;;;86.32;56.58;;;21.90;99.90;;;;;;4927763;29;20215;-74
2022/03/01 00:46:20;;;;;;;87.78;57.08;;;21.90;99.90;;;;;;4845143;29;20221;-74
2022/03/01 00:53:51;;;;;;;86.18;55.75;;;21.90;99.90;;;;;;5173258;27;20510;-74
2022/03/01 00:56:18;;;;;;;85.28;53.85;;;21.90;99.90;;;;;;5097796;27;20208;-74
2022/03/01 00:58:45;;;;;;;80.22;52.53;;;21.90;99.90;;;;;;5099863;27;20214;-74
2022/03/01 01:01:12;;;;;;;80.68;52.78;;;21.80;99.90;;;;;;5106940;28;20208;-74
2022/03/01 01:03:38;;;;;;;82.28;53.40;;;21.90;99.90;;;;;;5030711;28;20231;-74
2022/03/01 01:06:05;;;;;;;79.28;52.67;;;21.80;99.90;;;;;;4958621;28;20208;-74
2022/03/01 01:08:32;;;;;;;79.95;52.72;;;21.90;99.90;;;;;;4828349;29;20224;-74
2022/03/01 01:16:04;;;;;;;75.57;49.45;;;21.80;99.90;;;;;;5173259;27;20301;-74
2022/03/01 01:18:30;;;;;;;76.47;50.92;;;21.80;99.90;;;;;;5115441;27;20207;-73
2022/03/01 01:20:57;;;;;;;79.47;51.33;;;21.80;99.90;;;;;;5115143;27;20219;-73
2022/03/01 01:23:24;;;;;;;80.57;51.65;;;21.80;99.90;;;;;;5086416;28;20234;-73
2022/03/01 01:25:50;;;;;;;80.68;50.55;;;21.80;99.90;;;;;;4999763;28;20218;-73
2022/03/01 01:28:17;;;;;;;79.78;51.13;;;21.80;99.90;;;;;;4827558;29;20219;-73
2022/03/01 01:30:44;;;;;;;70.97;47.47;;;21.80;99.90;;;;;;4706552;30;20220;-73
2022/03/01 01:36:15;;;;;;;70.45;47.20;;;21.70;99.90;;;;;;5173228;27;20503;-73
2022/03/01 01:38:42;;;;;;;70.35;47.38;;;21.70;99.90;;;;;;5113555;27;20207;-73
2022/03/01 01:41:08;;;;;;;69.35;46.28;;;21.70;99.90;;;;;;5115114;27;20215;-73
2022/03/01 01:43:35;;;;;;;70.80;46.65;;;21.70;99.90;;;;;;5090984;28;20248;-73
2022/03/01 01:46:02;;;;;;;66.63;45.17;;;21.70;99.90;;;;;;5021368;28;20223;-73
2022/03/01 01:48:28;;;;;;;68.15;44.28;;;21.70;99.90;;;;;;4953082;28;20218;-73
2022/03/01 01:50:55;;;;;;;66.45;44.05;;;21.70;99.90;;;;;;4826333;29;20219;-73
2022/03/01 01:58:28;;;;;;;62.15;42.55;;;21.70;99.90;;;;;;5172892;27;20514;-72
2022/03/01 02:00:54;;;;;;;64.40;41.80;;;21.70;99.90;;;;;;5130902;27;20212;-72
2022/03/01 02:03:21;;;;;;;63.25;43.63;;;21.70;99.90;;;;;;5114496;28;20235;-72
2022/03/01 02:05:48;;;;;;;60.00;40.88;;;21.70;99.90;;;;;;5106964;28;20208;-72
2022/03/01 02:08:14;;;;;;;62.40;42.10;;;21.60;99.90;;;;;;5048342;28;20228;-72
2022/03/01 02:10:41;;;;;;;56.28;40.00;;;21.60;99.90;;;;;;4986058;28;20221;-72
2022/03/01 02:13:08;;;;;;;63.90;42.10;;;21.60;99.90;;;;;;4831054;29;20322;-72
2022/03/01 02:20:39;;;;;;;60.28;41.17;;;21.60;99.90;;;;;;5172892;27;20519;-73
2022/03/01 02:23:05;;;;;;;59.20;40.17;;;21.60;99.90;;;;;;5115124;28;20223;-73
2022/03/01 02:25:32;;;;;;;58.78;39.88;;;21.60;99.90;;;;;;5130746;28;20215;-73
2022/03/01 02:27:59;;;;;;;56.22;37.88;;;21.60;99.90;;;;;;5105205;28;20213;-73
2022/03/01 02:30:26;;;;;;;52.88;36.88;;;21.60;99.90;;;;;;5023594;28;20243;-73
2022/03/01 02:32:53;;;;;;;53.28;38.88;;;21.60;99.90;;;;;;4896151;29;20239;-74
2022/03/01 02:35:20;;;;;;;54.13;36.47;;;21.60;99.90;;;;;;4848347;29;20218;-73
2022/03/01 02:42:52;;;;;;;52.72;35.85;;;21.60;99.90;;;;;;5162666;27;20544;-73
2022/03/01 02:45:19;;;;;;;49.03;33.35;;;21.60;99.90;;;;;;5132940;27;20213;-74
2022/03/01 02:47:46;;;;;;;50.47;34.42;;;21.60;99.90;;;;;;5113841;27;20219;-74
2022/03/01 02:50:14;;;;;;;46.95;34.13;;;21.50;99.90;;;;;;5093195;28;20204;-73
2022/03/01 02:52:41;;;;;;;47.20;32.10;;;21.50;99.90;;;;;;5056626;28;20247;-74
2022/03/01 02:55:09;;;;;;;47.90;33.95;;;21.50;99.90;;;;;;4871946;29;20225;-74
2022/03/01 02:57:36;;;;;;;46.78;32.72;;;21.50;99.90;;;;;;4643410;29;20227;-73
2022/03/01 03:05:08;;;;;;;46.67;31.73;;;21.50;99.90;;;;;;5173318;27;20511;-73
2022/03/01 03:07:34;;;;;;;45.95;31.17;;;21.50;99.90;;;;;;5113281;27;20218;-73
2022/03/01 03:10:01;;;;;;;41.25;29.75;;;21.50;99.90;;;;;;5115364;27;20221;-73
2022/03/01 03:12:28;;;;;;;41.80;29.25;;;21.50;99.90;;;;;;5103768;28;20227;-73
2022/03/01 03:14:55;;;;;;;42.45;30.30;;;21.50;99.90;;;;;;5055730;28;20228;-73
2022/03/01 03:17:22;;;;;;;41.65;29.25;;;21.50;99.90;;;;;;4873263;29;20219;-73
2022/03/01 03:19:49;;;;;;;42.45;29.77;;;21.50;99.90;;;;;;4878459;29;20216;-73
2022/03/01 03:27:20;;;;;;;38.58;27.58;;;21.50;99.90;;;;;;5173205;27;20523;-73
2022/03/01 03:29:47;;;;;;;39.15;28.15;;;21.40;99.90;;;;;;5130851;27;20204;-74
2022/03/01 03:32:14;;;;;;;40.80;29.45;;;21.50;99.90;;;;;;5098540;28;20228;-74
2022/03/01 03:34:41;;;;;;;40.70;28.63;;;21.40;99.90;;;;;;5044504;28;20216;-73
2022/03/01 03:37:07;;;;;;;41.45;28.75;;;21.40;99.90;;;;;;4999669;28;20216;-74
2022/03/01 03:39:34;;;;;;;37.30;26.23;;;21.40;99.90;;;;;;4873259;29;20225;-74
2022/03/01 03:42:00;;;;;;;39.10;27.08;;;21.40;99.90;;;;;;4693289;30;20247;-73
2022/03/01 03:49:33;;;;;;;37.28;26.20;;;21.40;99.90;;;;;;5172874;27;20499;-72
2022/03/01 03:52:00;;;;;;;33.78;25.38;;;21.40;99.90;;;;;;5107795;28;20232;-72
2022/03/01 03:54:27;;;;;;;36.40;25.42;;;21.40;99.90;;;;;;5094963;28;20218;-72
2022/03/01 03:56:53;;;;;;;35.40;25.35;;;21.40;99.90;;;;;;5089064;28;20212;-72
2022/03/01 03:59:20;;;;;;;35.60;24.45;;;21.40;99.90;;;;;;5042900;28;20231;-72
2022/03/01 04:01:47;;;;;;;36.97;25.00;;;21.40;99.90;;;;;;4913052;29;20241;-72
2022/03/01 04:04:14;;;;;;;33.35;24.20;;;21.40;99.90;;;;;;4806417;29;20226;-72
2022/03/01 04:11:46;;;;;;;34.40;23.67;;;21.30;99.90;;;;;;5168891;27;20525;-73
2022/03/01 04:14:13;;;;;;;34.25;23.75;;;21.30;99.90;;;;;;5132949;27;20198;-73
2022/03/01 04:16:42;;;;;;;35.47;23.90;;;21.30;99.90;;;;;;5115075;27;20222;-73
2022/03/01 04:19:09;;;;;;;34.33;23.83;;;21.40;99.90;;;;;;5094310;28;20230;-73
2022/03/01 04:21:36;;;;;;;32.75;23.23;;;21.30;99.90;;;;;;5046840;28;20291;-74
2022/03/01 04:24:03;;;;;;;33.10;23.30;;;21.30;99.90;;;;;;5003580;28;20210;-73
2022/03/01 04:26:30;;;;;;;29.20;21.50;;;21.30;99.90;;;;;;4890399;28;20222;-73
2022/03/01 04:31:35;;;;;;;29.55;21.33;;;21.30;99.90;;;;;;5170156;27;20519;-73
2022/03/01 04:34:02;;;;;;;28.75;21.23;;;21.30;99.90;;;;;;5151401;27;20207;-73
2022/03/01 04:36:28;;;;;;;29.90;20.63;;;21.30;99.90;;;;;;5132315;27;20222;-73
2022/03/01 04:38:55;;;;;;;29.88;20.50;;;21.30;99.90;;;;;;5130423;27;20215;-73
2022/03/01 04:41:22;;;;;;;29.65;21.00;;;21.30;99.90;;;;;;5103908;28;20212;-73
2022/03/01 04:43:49;;;;;;;28.98;20.48;;;21.30;99.90;;;;;;5048717;28;20210;-73
2022/03/01 04:46:18;;;;;;;31.15;21.02;;;21.30;99.90;;;;;;4939953;28;20229;-73
2022/03/01 04:52:19;;;;;;;28.77;19.85;;;21.30;99.90;;;;;;5164173;27;20528;-74
2022/03/01 04:54:46;;;;;;;27.85;19.42;;;21.30;99.90;;;;;;5137051;27;20213;-73
2022/03/01 04:57:12;;;;;;;28.77;20.15;;;21.30;99.90;;;;;;5115493;27;20225;-73
2022/03/01 04:59:39;;;;;;;26.85;19.58;;;21.30;99.90;;;;;;5098311;28;20276;-73
2022/03/01 05:02:06;;;;;;;26.73;19.05;;;21.20;99.90;;;;;;5040351;28;20246;-73
2022/03/01 05:04:32;;;;;;;25.08;17.95;;;21.20;99.90;;;;;;4982811;28;20217;-73
2022/03/01 05:06:59;;;;;;;25.38;18.77;;;21.20;99.90;;;;;;4899731;29;20225;-73
2022/03/01 05:14:31;;;;;;;21.92;16.67;;;21.20;99.90;;;;;;5172975;27;20499;-73
2022/03/01 05:16:57;;;;;;;25.42;17.80;;;21.20;99.90;;;;;;5113892;27;20218;-73
2022/03/01 05:19:24;;;;;;;23.15;17.63;;;21.20;99.90;;;;;;5114788;27;20221;-73
2022/03/01 05:21:51;;;;;;;24.77;17.33;;;21.20;99.90;;;;;;5105404;28;20231;-74
2022/03/01 05:24:17;;;;;;;24.48;17.98;;;21.20;99.90;;;;;;5044039;28;20223;-73
2022/03/01 05:26:44;;;;;;;21.98;16.67;;;21.20;99.90;;;;;;4957417;28;20218;-73
2022/03/01 05:29:11;;;;;;;25.50;17.45;;;21.20;99.90;;;;;;4834201;29;20250;-72
2022/03/01 05:36:44;;;;;;;22.20;16.13;;;21.20;99.90;;;;;;5173358;27;20511;-73
2022/03/01 05:39:11;;;;;;;21.08;15.70;;;21.20;99.90;;;;;;5131014;27;20203;-74
2022/03/01 05:41:37;;;;;;;20.60;15.63;;;21.20;99.90;;;;;;5129116;28;20236;-74
2022/03/01 05:44:05;;;;;;;21.80;16.02;;;21.20;99.90;;;;;;5062831;28;20243;-73
2022/03/01 05:46:31;;;;;;;21.55;16.73;;;21.20;99.90;;;;;;4991476;28;20229;-74
2022/03/01 05:48:58;;;;;;;21.63;15.70;;;21.20;99.90;;;;;;4832507;29;20223;-74
2022/03/01 05:51:25;;;;;;;22.10;15.73;;;21.20;99.90;;;;;;4790267;29;20226;-73
2022/03/01 05:58:56;;;;;;;30.17;19.40;;;21.20;99.90;;;;;;5161551;27;20524;-74
2022/03/01 06:01:23;;;;;;;53.53;44.72;;;21.20;99.90;;;;;;5115058;28;20250;-74
2022/03/01 06:03:50;;;;;;;397.23;355.63;;;21.20;99.90;;;;;;5049987;28;20224;-74
2022/03/01 06:06:18;;;;;;;61.03;34.55;;;21.20;99.90;;;;;;5077139;28;20217;-73
2022/03/01 06:08:45;;;;;;;21.40;15.52;;;21.20;99.90;;;;;;4976535;28;20235;-74
2022/03/01 06:11:12;;;;;;;722.78;655.45;;;21.10;99.90;;;;;;4742983;29;20348;-74
2022/03/01 06:13:39;;;;;;;582.83;509.73;;;21.20;99.90;;;;;;4624343;30;20256;-74
2022/03/01 06:19:08;;;;;;;19.98;14.05;;;21.20;99.90;;;;;;5162749;27;20509;-74
2022/03/01 06:21:35;;;;;;;95.10;82.60;;;21.10;99.90;;;;;;5078053;27;20239;-73
2022/03/01 06:24:02;;;;;;;25.98;15.65;;;21.10;99.90;;;;;;5074037;28;20224;-73
2022/03/01 06:26:30;;;;;;;25.00;17.33;;;21.10;99.90;;;;;;5042231;28;20214;-74
2022/03/01 06:28:57;;;;;;;22.58;16.02;;;21.10;99.90;;;;;;4931136;28;20241;-74
2022/03/01 06:31:23;;;;;;;23.85;16.27;;;21.10;99.90;;;;;;4774001;29;20229;-73
2022/03/01 06:33:50;;;;;;;23.95;16.58;;;21.10;99.90;;;;;;4639448;30;20236;-74
2022/03/01 06:41:21;;;;;;;22.45;16.02;;;21.10;99.90;;;;;;5172235;27;20503;-75
2022/03/01 06:43:48;;;;;;;24.98;17.02;;;21.10;99.90;;;;;;5133310;27;20276;-74
2022/03/01 06:46:15;;;;;;;24.77;17.02;;;21.10;99.90;;;;;;5132041;27;20219;-74
2022/03/01 06:48:41;;;;;;;24.50;17.10;;;21.10;99.90;;;;;;5109090;28;20214;-74
2022/03/01 06:51:08;;;;;;;23.98;16.33;;;21.10;99.90;;;;;;5025950;28;20224;-74
2022/03/01 06:53:36;;;;;;;25.63;17.65;;;21.10;99.90;;;;;;4808518;29;20246;-74
2022/03/01 06:56:03;;;;;;;24.52;17.10;;;21.10;99.90;;;;;;4690320;30;20225;-74
2022/03/01 07:03:35;;;;;;;25.20;18.15;;;21.10;99.90;;;;;;5153257;27;20533;-74
2022/03/01 07:06:05;;;;;;;26.35;19.00;;;21.10;99.90;;;;;;5136209;27;20191;-72
2022/03/01 07:08:32;;;;;;;24.65;16.75;;;21.10;99.90;;;;;;5097610;28;20219;-73
2022/03/01 07:10:58;;;;;;;24.25;18.05;;;21.10;99.90;;;;;;5067749;28;20239;-74
2022/03/01 07:13:25;;;;;;;36.50;26.35;;;21.20;99.90;;;;;;5008413;28;20236;-74
2022/03/01 07:15:52;;;;;;;48.17;35.40;;;21.20;99.90;;;;;;4912745;29;20225;-72
2022/03/01 07:18:18;;;;;;;48.40;35.20;;;21.20;99.90;;;;;;4683353;29;20238;-73
2022/03/01 07:25:47;;;;;;;43.97;33.33;;;21.20;99.90;;;;;;5172767;27;20293;-74
2022/03/01 07:28:13;;;;;;;40.95;31.33;;;21.30;99.90;;;;;;5130915;27;20204;-74
2022/03/01 07:30:40;;;;;;;45.72;33.78;;;21.30;99.90;;;;;;5106881;28;20235;-73
2022/03/01 07:33:07;;;;;;;48.58;34.28;;;21.30;99.90;;;;;;5037054;28;20230;-73
2022/03/01 07:35:33;;;;;;;43.22;32.28;;;21.30;99.90;;;;;;4957892;28;20225;-73
2022/03/01 07:38:00;;;;;;;41.67;32.35;;;21.30;99.90;;;;;;4881635;29;20215;-73
2022/03/01 07:40:27;;;;;;;46.53;34.83;;;21.40;99.90;;;;;;4801475;29;20227;-74
2022/03/01 07:48:01;;;;;;;43.20;31.05;;;21.30;99.90;;;;;;5172617;27;20507;-74
2022/03/01 07:50:29;;;;;;;43.00;32.92;;;21.40;99.90;;;;;;5130993;27;20199;-73
2022/03/01 07:52:56;;;;;;;45.58;32.90;;;21.40;99.90;;;;;;5097241;28;20230;-73
2022/03/01 07:55:22;;;;;;;46.85;34.33;;;21.40;99.90;;;;;;5013623;28;20218;-73
2022/03/01 07:57:49;;;;;;;44.67;33.42;;;21.40;99.90;;;;;;5006175;28;20226;-73
2022/03/01 08:00:16;;;;;;;44.67;33.58;;;21.40;99.90;;;;;;4858049;29;20229;-72
2022/03/01 08:02:46;;;;;;;53.05;37.17;;;21.40;99.90;;;;;;4820182;29;20234;-72
2022/03/01 08:10:19;;;;;;;48.05;37.50;;;21.40;99.90;;;;;;5172728;27;20507;-73
2022/03/01 08:12:45;;;;;;;48.33;34.95;;;21.40;99.90;;;;;;5118012;28;20223;-73
2022/03/01 08:15:12;;;;;;;48.63;35.78;;;21.40;99.90;;;;;;5094272;28;20219;-73
2022/03/01 08:17:46;;;;;;;44.78;33.70;;;21.40;99.90;;;;;;5088291;28;20205;-74
2022/03/01 08:20:13;;;;;;;42.85;32.88;;;21.40;99.90;;;;;;5051182;28;20220;-73
2022/03/01 08:22:40;;;;;;;49.35;37.60;;;21.50;99.90;;;;;;4999255;28;20241;-73
2022/03/01 08:25:08;;;;;;;44.47;35.15;;;21.40;99.90;;;;;;4907318;28;20216;-73
2022/03/01 08:30:16;;;;;;;47.58;36.75;;;21.40;99.90;;;;;;5037617;27;20539;-73
2022/03/01 08:32:43;;;;;;;47.47;37.60;;;21.40;99.90;;;;;;5093087;28;20259;-74
2022/03/01 08:35:10;;;;;;;48.28;37.05;;;21.40;99.90;;;;;;5089384;28;20209;-73
2022/03/01 08:37:37;;;;;;;45.03;35.03;;;21.40;99.90;;;;;;5073223;28;20220;-73
2022/03/01 08:40:05;;;;;;;44.40;34.75;;;21.40;99.90;;;;;;5045307;28;20223;-73
2022/03/01 08:42:32;;;;;;;43.10;33.20;;;21.40;99.90;;;;;;4903923;29;20252;-73
2022/03/01 08:44:58;;;;;;;44.22;33.47;;;21.40;99.90;;;;;;4751720;29;20231;-73
2022/03/01 08:52:31;;;;;;;46.28;35.00;;;21.40;99.90;;;;;;5152051;27;20526;-73
2022/03/01 08:54:58;;;;;;;46.38;36.90;;;21.40;99.90;;;;;;5095636;28;20204;-73
2022/03/01 08:57:24;;;;;;;43.70;33.85;;;21.40;99.90;;;;;;5089582;28;20220;-74
2022/03/01 08:59:51;;;;;;;49.35;37.33;;;21.40;99.90;;;;;;5067147;28;20215;-74
2022/03/01 09:02:19;;;;;;;44.50;34.83;;;21.40;99.90;;;;;;4878905;28;20251;-74
2022/03/01 09:04:46;;;;;;;52.35;39.20;;;21.40;99.90;;;;;;4833038;29;20217;-74
2022/03/01 09:07:13;;;;;;;46.30;35.45;;;21.40;99.90;;;;;;4779223;29;20352;-74
2022/03/01 09:14:44;;;;;;;48.08;35.22;;;21.50;99.90;;;;;;5172941;27;20503;-74
2022/03/01 09:17:11;;;;;;;45.55;34.55;;;21.50;99.90;;;;;;5131128;27;20217;-74
2022/03/01 09:19:37;;;;;;;48.90;37.70;;;21.50;99.90;;;;;;5118638;27;20226;-73
2022/03/01 09:22:04;;;;;;;49.63;37.83;;;21.50;99.90;;;;;;5106715;28;20235;-73
2022/03/01 09:24:31;;;;;;;46.08;36.42;;;21.50;99.90;;;;;;5048857;28;20211;-74
2022/03/01 09:27:01;;;;;;;44.80;35.35;;;21.50;99.90;;;;;;4936644;29;20206;-72
2022/03/01 09:29:27;;;;;;;46.50;36.92;;;21.50;99.90;;;;;;4800320;29;20228;-73
2022/03/01 09:36:59;;;;;;;54.33;39.78;;;21.50;99.90;;;;;;5172928;27;20500;-73
2022/03/01 09:39:26;;;;;;;52.50;41.22;;;21.60;99.90;;;;;;5130676;27;20215;-72
2022/03/01 09:41:55;;;;;;;54.25;41.47;;;21.60;99.90;;;;;;5109578;28;20250;-73
2022/03/01 09:44:22;;;;;;;51.75;38.80;;;21.70;99.90;;;;;;5093718;28;20219;-73
2022/03/01 09:46:49;;;;;;;52.38;39.38;;;21.60;99.90;;;;;;5057202;28;20235;-73
2022/03/01 09:49:16;;;;;;;53.10;40.28;;;21.70;99.90;;;;;;4945437;28;20219;-73
2022/03/01 09:51:43;;;;;;;52.20;39.78;;;21.70;99.90;;;;;;4744407;29;20260;-73
2022/03/01 09:59:14;;;;;;;50.92;40.58;;;21.80;99.90;;;;;;5090956;27;20557;-74
2022/03/01 10:01:47;;;;;;;51.13;41.53;;;21.90;99.90;;;;;;5102679;28;20224;-73
2022/03/01 10:04:14;;;;;;;51.03;39.85;;;21.90;99.90;;;;;;5085717;28;20215;-72
2022/03/01 10:06:42;;;;;;;50.75;38.85;;;21.90;99.90;;;;;;5088667;28;20223;-73
2022/03/01 10:09:15;;;;;;;48.35;38.35;;;21.90;99.90;;;;;;5019221;28;20228;-73
2022/03/01 10:11:42;;;;;;;46.88;36.83;;;22.00;99.90;;;;;;4921742;28;20243;-73
2022/03/01 10:14:09;;;;;;;47.90;37.75;;;22.00;99.90;;;;;;4758006;29;20234;-73
2022/03/01 10:21:40;;;;;;;45.63;36.88;;;22.10;99.90;;;;;;5169033;27;20521;-73
2022/03/01 10:24:08;;;;;;;46.55;36.08;;;22.20;99.90;;;;;;5115906;27;20202;-73
2022/03/01 10:26:37;;;;;;;44.70;35.60;;;22.20;99.90;;;;;;5109646;28;20211;-73
2022/03/01 10:29:06;;;;;;;43.47;34.70;;;22.20;99.90;;;;;;5088779;28;20229;-73
2022/03/01 10:31:34;;;;;;;42.72;33.58;;;22.30;99.90;;;;;;4956508;28;20231;-73
2022/03/01 10:34:03;;;;;;;44.72;33.55;;;22.30;99.90;;;;;;4940710;28;20224;-72
2022/03/01 10:36:34;;;;;;;40.75;31.20;;;22.40;99.90;;;;;;4927609;28;20227;-73
2022/03/01 10:44:13;;;;;;;36.63;30.27;;;22.50;99.90;;;;;;5173099;27;20499;-73
2022/03/01 10:46:42;;;;;;;38.83;30.55;;;22.50;99.90;;;;;;5115870;27;20207;-73
2022/03/01 10:49:11;;;;;;;36.65;30.15;;;22.60;99.90;;;;;;5131225;27;20208;-73
2022/03/01 10:51:47;;;;;;;36.67;28.77;;;22.60;99.90;;;;;;5113223;28;20246;-73
2022/03/01 10:54:24;;;;;;;35.85;29.20;;;22.60;99.90;;;;;;5001093;28;20225;-73
2022/03/01 10:56:55;;;;;;;36.60;29.45;;;22.70;99.90;;;;;;4750133;29;20257;-73
2022/03/01 10:59:23;;;;;;;35.42;28.70;;;22.80;99.90;;;;;;4632804;30;20231;-72
2022/03/01 11:06:56;;;;;;;40.97;30.83;;;22.90;99.90;;;;;;5156238;27;20520;-72
2022/03/01 11:09:25;;;;;;;40.13;32.38;;;22.90;99.90;;;;;;5079194;28;20236;-73
2022/03/01 11:11:53;;;;;;;42.42;32.85;;;23.00;99.90;;;;;;5062967;28;20238;-73
2022/03/01 11:14:25;;;;;;;46.05;34.88;;;23.00;99.90;;;;;;5047128;28;20228;-73
2022/03/01 11:17:01;;;;;;;45.65;35.90;;;23.10;99.90;;;;;;5020158;28;20221;-73
2022/03/01 11:19:47;;;;;;;51.72;37.90;;;23.10;99.90;;;;;;4864342;29;20227;-73
2022/03/01 11:25:53;;;;;;;51.08;37.85;;;23.10;99.90;;;;;;5172496;27;20507;-73
2022/03/01 11:28:30;;;;;;;55.53;39.00;;;23.20;99.90;;;;;;5130571;27;20211;-73
2022/03/01 11:30:57;;;;;;;58.17;41.93;;;23.30;99.90;;;;;;5126250;27;20436;-73
2022/03/01 11:33:26;;;;;;;56.75;42.67;;;23.40;99.90;;;;;;5106126;28;20235;-73
2022/03/01 11:35:55;;;;;;;62.53;43.63;;;23.40;99.90;;;;;;4978554;28;20218;-73
2022/03/01 11:38:25;;;;;;;59.28;43.92;;;23.40;99.90;;;;;;4882745;29;20213;-73
2022/03/01 11:40:55;;;;;;;59.25;43.22;;;23.40;99.90;;;;;;4781911;29;20228;-73
2022/03/01 11:48:28;;;;;;;60.83;44.83;;;23.50;99.90;;;;;;5172289;27;20507;-73
2022/03/01 11:50:57;;;;;;;63.38;46.15;;;23.50;99.90;;;;;;5151335;27;20207;-73
2022/03/01 11:53:25;;;;;;;62.25;46.00;;;23.60;99.90;;;;;;5090395;28;20228;-73
2022/03/01 11:55:54;;;;;;;62.55;47.00;;;23.60;99.90;;;;;;5052139;28;20208;-73
2022/03/01 11:58:22;;;;;;;62.30;45.83;;;23.70;99.90;;;;;;5010643;28;20213;-72
2022/03/01 12:00:50;;;;;;;67.78;47.33;;;23.70;99.90;;;;;;5001212;28;20221;-73
2022/03/01 12:03:19;;;;;;;65.57;47.40;;;23.70;99.90;;;;;;4886733;28;20244;-73
2022/03/01 12:10:53;;;;;;;62.22;45.47;;;23.80;99.90;;;;;;5172811;27;20294;-73
2022/03/01 12:13:21;;;;;;;64.40;46.97;;;23.80;99.90;;;;;;5117659;28;20227;-73
2022/03/01 12:15:55;;;;;;;64.10;47.60;;;23.80;99.90;;;;;;5110572;28;20200;-73
2022/03/01 12:18:28;;;;;;;63.03;46.03;;;23.80;99.90;;;;;;5082637;28;20226;-73
2022/03/01 12:21:00;;;;;;;63.78;46.00;;;23.90;99.90;;;;;;5005615;28;20502;-73
2022/03/01 12:23:28;;;;;;;60.83;44.55;;;23.90;99.90;;;;;;4949904;28;20237;-73
2022/03/01 12:25:58;;;;;;;63.38;44.22;;;24.00;99.90;;;;;;4797980;29;20247;-73
2022/03/01 12:33:32;;;;;;;;;;;24.00;99.90;;;;;;5153785;27;19926;-72
2022/03/01 12:36:02;;;;;;;;;;;24.00;99.90;;;;;;5151801;27;19930;-72
2022/03/01 12:38:29;;;;;;;;;;;24.00;99.90;;;;;;5127437;27;19931;-72
2022/03/01 12:41:06;;;;;;;;;;;24.10;99.90;;;;;;5100121;28;19925;-73
2022/03/01 12:43:32;;;;;;;;;;;24.20;99.90;;;;;;5001083;28;19925;-73
2022/03/01 12:45:59;;;;;;;;;;;24.20;99.90;;;;;;4938354;28;19928;-73
2022/03/01 12:48:25;;;;;;;;;;;24.20;99.90;;;;;;4871077;29;19940;-72
2022/03/01 12:55:56;;;;;;;;;;;24.30;99.90;;;;;;5173548;27;19925;-73
2022/03/01 12:58:23;;;;;;;;;;;24.40;99.90;;;;;;5153884;27;19923;-73
2022/03/01 13:00:50;;;;;;;;;;;24.40;99.90;;;;;;5135370;27;19938;-73
2022/03/01 13:03:24;;;;;;;;;;;24.40;99.90;;;;;;5114289;27;19924;-73
2022/03/01 13:05:50;;;;;;;;;;;24.40;99.90;;;;;;5087381;28;19925;-73
2022/03/01 13:08:17;;;;;;;;;;;24.50;99.90;;;;;;4976035;28;19927;-73
2022/03/01 13:10:43;;;;;;;;;;;24.60;99.90;;;;;;4811098;29;19929;-73
2022/03/01 13:16:39;;;;;;;;;;;24.70;99.90;;;;;;5173260;27;19925;-73
2022/03/01 13:19:06;;;;;;;;;;;25.30;99.90;;;;;;5134282;27;19946;-73
2022/03/01 13:21:33;;;;;;;;;;;26.60;99.90;;;;;;5133289;27;19930;-73
2022/03/01 13:24:01;;;;;;;;;;;27.50;99.90;;;;;;5144216;27;19931;-73
2022/03/01 13:26:28;;;;;;;;;;;28.20;99.90;;;;;;5084700;28;19929;-73
2022/03/01 13:29:05;;;;;;;;;;;28.90;99.90;;;;;;5025132;28;19925;-74
2022/03/01 13:31:32;;;;;;;;;;;29.40;97.30;;;;;;4839446;29;19939;-74
2022/03/01 13:39:06;;;;;;;;;;;28.60;94.20;;;;;;5172907;27;19926;-73
2022/03/01 13:41:34;;;;;;;;;;;27.90;94.60;;;;;;5132404;27;19924;-73
2022/03/01 13:44:17;;;;;;;;;;;27.40;94.90;;;;;;5116861;27;19924;-73
2022/03/01 13:46:54;;;;;;;;;;;27.10;95.30;;;;;;5103604;28;19924;-73
2022/03/01 13:49:24;;;;;;;;;;;27.50;94.80;;;;;;4944995;28;19929;-73
2022/03/01 13:51:51;;;;;;;;;;;27.90;94.00;;;;;;4819382;29;19929;-73
2022/03/01 13:54:24;;;;;;;;;;;27.70;93.90;;;;;;4724716;30;19932;-74
2022/03/01 14:03:49;;;;;;;6.00;3.40;;;;;;;;;;5089396;27;19927;-80
2022/03/01 14:06:16;;;;;;;6.13;3.58;;;17.00;37.50;;;;;;4814097;28;20235;-82
2022/03/01 14:08:54;;;;;;;6.80;4.35;;;15.70;40.80;;;;;;4974163;28;20238;-79
2022/03/01 14:11:21;;;;;;;6.50;3.90;;;14.30;41.30;;;;;;4967132;28;20218;-79
2022/03/01 14:13:49;;;;;;;;;;;14.30;42.60;;;;;;4882677;29;20217;-81
2022/03/01 14:16:19;;;;;;;;;;;12.70;42.20;;;;;;4719608;29;19931;-81
2022/03/01 14:18:48;;;;;;;;;;;12.60;43.80;;;;;;4488036;30;19941;-79
2022/03/01 14:26:22;;;;;;;4.80;3.40;;;13.40;44.10;;;;;;5012795;27;20565;-80
2022/03/01 14:28:54;;;;;;;5.43;3.50;;;12.60;44.90;;;;;;5076826;28;20205;-78
2022/03/01 14:31:21;;;;;;;7.05;3.90;;;13.90;44.90;;;;;;5095641;28;20215;-80
2022/03/01 14:33:48;;;;;;;7.10;3.55;;;13.90;42.80;;;;;;5028694;28;20215;-79
2022/03/01 14:36:15;;;;;;;;;;;13.50;43.50;;;;;;4955267;28;19977;-81
2022/03/01 14:38:42;;;;;;;;;;;13.60;43.20;;;;;;4853866;29;19956;-81
2022/03/01 14:41:09;;;;;;;;;;;;;;;;;;4618865;30;19939;-80
2022/03/01 14:46:20;;;;;;;;;;;13.20;42.30;;;;;;5179614;27;19926;-81
2022/03/01 14:48:47;;;;;;;;;;;13.00;43.00;;;;;;5138676;27;19923;-82
2022/03/01 14:51:14;;;;;;;;;;;13.20;43.40;;;;;;5137261;27;19926;-79
2022/03/01 14:53:41;;;;;;;;;;;13.90;42.70;;;;;;5104316;28;19928;-84
2022/03/01 14:56:07;;;;;;;;;;;13.10;42.30;;;;;;4950726;28;19929;-81
2022/03/01 15:00:02;;;;;;;;;;;12.80;43.00;;;;;;5183571;27;19926;-81
2022/03/01 15:02:29;;;;;;;;;;;12.70;43.10;;;;;;5134631;27;19923;-78
2022/03/01 15:04:56;;;;;;;;;;;12.40;43.40;;;;;;5107129;28;19932;-79
2022/03/01 15:09:25;;;;;;;;;;;12.20;43.90;;;;;;5172206;27;19927;-81
2022/03/01 15:11:51;;;;;;;;;;;13.50;44.00;;;;;;5115822;27;19924;-80
2022/03/01 15:14:18;;;;;;;;;;;14.40;42.80;;;;;;5092005;28;19946;-86
2022/03/01 15:16:45;;;;;;;;;;;14.60;41.70;;;;;;5092086;28;19931;-83
2022/03/01 15:19:11;;;;;;;;;;;13.20;41.90;;;;;;5020165;28;19933;-80
2022/03/01 15:21:39;;;;;;;;;;;11.90;43.80;;;;;;4928935;28;19929;-80
2022/03/01 15:24:09;;;;;;;;;;;11.90;44.50;;;;;;4664484;29;19940;-78
2022/03/01 15:30:53;;;;;;;;;;;;;;;;;;5185866;27;19930;-79
2022/03/01 15:33:21;;;;;;;;;;;10.40;44.50;;;;;;4913928;28;2153356;-82
2022/03/01 15:35:47;;;;;;;;;;;9.50;47.10;;;;;;5009590;28;19925;-80
2022/03/01 15:38:22;;;;;;;;;;;9.20;48.30;;;;;;5047266;27;19928;-81
2022/03/01 15:42:43;;;;;;;;;;;8.70;49.00;;;;;;5128613;27;107513;-77
2022/03/01 15:46:44;;;;;;;;;;;8.50;49.70;;;;;;5077936;27;19931;-81
2022/03/01 15:49:11;;;;;;;;;;;8.40;50.20;;;;;;4998985;28;19932;-79
2022/03/01 15:51:38;;;;;;;;;;;8.00;50.30;;;;;;4957730;28;19932;-80
2022/03/01 15:54:04;;;;;;;;;;;7.80;50.40;;;;;;4960551;28;19926;-81
2022/03/01 15:56:31;;;;;;;;;;;7.60;50.30;;;;;;5012944;28;19926;-79
2022/03/01 15:58:58;;;;;;;;;;;7.50;50.70;;;;;;4905379;28;19929;-80
2022/03/01 16:01:25;;;;;;;;;;;7.40;50.90;;;;;;4755128;29;19931;-84
2022/03/01 16:06:41;;;;;;;;;;;7.20;51.50;;;;;;5177307;27;19926;-82
2022/03/01 16:09:08;;;;;;;;;;;7.20;53.30;;;;;;5121106;27;19930;-82
2022/03/01 16:11:35;;;;;;;;;;;7.20;53.50;;;;;;5116137;27;19931;-80
2022/03/01 16:14:01;;;;;;;;;;;7.10;54.40;;;;;;5073871;28;19924;-82
2022/03/01 16:16:28;;;;;;;;;;;7.00;55.00;;;;;;5050817;28;19927;-79
2022/03/01 16:18:54;;;;;;;;;;;6.90;55.10;;;;;;4905463;28;19935;-80